weerbeeld Almere Meer informatie weerbeeld Almere


Onweer radar Meer informatie blitzortung!


Regen radar Meer informatie rain snow radar


Apparatuur in gebruik:

Davis VP2

Meteohub

ALIX 1D

Web-Oke


Het weer levert geen direct gevaar op.    Er zijn geen waarschuwingen afgegeven.

METAR rapporten vliegvelden

   
EHAM - Amsterdam/Schiph, Netherlands
Afstand tot: WZW 42 km
Gewijzigd: 21-08-2018 05:25
Helder  
Helder  
   Wind: varieert 3.7 km/h
Wind: varieert 3.7 km/h
Temperatuur: 16°C
Dauwpunt: 15°C
Vochtigheid: 94%
Barometer: 1020 hPa
Zicht: meer dan 10 km
Bewolking: Helder ft
EHAM 210325Z VRB02KT CAVOK 16/15 Q1020 NOSIG
EHDL - Deelen Rnlafb, Netherlands
Afstand tot: ZO 49 km
Gewijzigd: 21-08-2018 05:25
Bewolking  
Bewolking  
   Wind: varieert 3.7 km/h
Wind: varieert 3.7 km/h
Temperatuur: 17°C
Dauwpunt: 16°C
Vochtigheid: 94%
Barometer: 1020 hPa
Bewolking: Overcast
Zicht: meer dan 10 km
Bewolking: Bewolking 7100 ft
EHDL 210325Z AUTO VRB02KT 9999 OVC071 17/16 Q1020 BLU
EHKD - De Kooy (navy), Netherlands
Afstand tot: NW 72 km
Gewijzigd: 21-08-2018 05:25
Bewolking  
Bewolking  
   Wind: ZZO 5.6 km/h
Wind: ZZO 5.6 km/h
Temperatuur: 17°C
Dauwpunt: 16°C
Vochtigheid: 94%
Barometer: 1020 hPa
Bewolking: Overcast
Zicht: meer dan 10 km
Bewolking: Bewolking 8400 ft
EHKD 210325Z AUTO 15003KT 9999 OVC084 17/16 Q1020 BLU
EHRD - Rotterdam Airpor, Netherlands
Afstand tot: ZW 80 km
Gewijzigd: 21-08-2018 05:25
Mist, Gedeeltelijk bewolkt  
Mist, Gedeeltelijk bewolkt  
   Wind: Oosten 5.6 km/h
Wind: Oosten 5.6 km/h
Temperatuur: 15°C
Dauwpunt: 15°C
Vochtigheid: 100%
Barometer: 1020 hPa
Bewolking: Partly Cloudy
Zicht: 1 km
Bewolking: Gedeeltelijk bewolkt ft
EHRD 210325Z AUTO 10003KT 0800 R24/1500D FG NSC 15/15 Q1020 NOSIG
EHVK - Volkel Rnlafb, Netherlands
Afstand tot: ZZO 87 km
Gewijzigd: 21-08-2018 05:25
Bewolking  
Bewolking  
   Wind: NO 3.7 km/h
Wind: NO 3.7 km/h
Temperatuur: 17°C
Dauwpunt: 16°C
Vochtigheid: 94%
Barometer: 1020 hPa
Bewolking: Overcast
Zicht: meer dan 10 km
Bewolking: Gedeeltelijk bewolkt 4400 ft,
Bewolking 7400 ft
EHVK 210325Z AUTO 04002KT 9999 SCT044 OVC074 17/16 Q1020 BLU
EHLW - Leeuwarden Rnlaf, Netherlands
Afstand tot: NNO 95 km
Gewijzigd: 21-08-2018 05:30
Nevel, Bewolking  
Nevel, Bewolking  
   Wind: Zuiden 7.4 km/h
Wind: Zuiden 7.4 km/h
Temperatuur: 17°C
Dauwpunt: 16°C
Vochtigheid: 94%
Barometer: 1020 hPa
Bewolking: Overcast
Zicht: 9 km
Bewolking: Licht bewolkt 1300 ft,
Bewolking 2200 ft
EHLW 210330Z AUTO 17004KT 9000 BR FEW013 OVC022 17/16 Q1020 WHT RMK R23

Script ontwikkeld door  Saratoga-weather.org Aangepast voor de template door  Weerstation Leuven

U vindt ons ook hier:

Het Weer Aktueel

UK Metoffice

European Weather Network

Weather Underground

AWEKAS